Weather at Nuevitas Airport

Public forecast

Using degrees Celsius for public forecast. Weather courtesy of forecast.io.

Closest aviation weather report (METAR) to Nuevitas Airport

Closest report is Ignacio Agramonte International Airport, 33.9 nm (62.7 km) WSW. Retrieved 2021/09/25 11:51 UTC (58 minutes ago):

MUCM 251151Z 08003KT 7000 VCFG SKC 25/24 Q1015

Closest aviation forecast (TAF) to Nuevitas Airport

Closest forecast is Ignacio Agramonte International Airport, 33.9 nm (62.7 km) WSW. Retrieved 2021/09/25 12:06 UTC (43 minutes ago):

TAF MUCM 251100Z 2512/2612 VRB03KT 9000 SCT018 TEMPO 2518/2524 VRB10KT 3000 TSRA SCT020CB BKN030